createdAt,value
2023-02-27T00:01:19.672Z,100503.28
2023-02-27T00:03:47.003Z,100516.97
2023-02-27T00:06:19.044Z,100524.66
2023-02-27T00:08:46.478Z,100532.13
2023-02-27T00:11:13.480Z,100531.91
2023-02-27T00:13:40.299Z,100536.63
2023-02-27T00:16:07.832Z,100530.81
2023-02-27T00:18:34.746Z,100539.47
2023-02-27T00:21:01.595Z,100543.84
2023-02-27T00:23:28.876Z,100546.03
2023-02-27T00:25:56.206Z,100553.38
2023-02-27T00:28:23.772Z,100564.12
2023-02-27T00:30:50.613Z,100564.78
2023-02-27T00:33:17.587Z,100565.09
2023-02-27T00:35:44.446Z,100574.22
2023-02-27T00:38:11.351Z,100573.34
2023-02-27T00:40:38.241Z,100578.25
2023-02-27T00:43:05.410Z,100575.72
2023-02-27T00:45:32.359Z,100583.34
2023-02-27T00:47:59.170Z,100577.19
2023-02-27T00:50:26.031Z,100588.16
2023-02-27T00:52:52.943Z,100583.94
2023-02-27T00:55:19.902Z,100582.94
2023-02-27T00:57:49.727Z,100598.78
2023-02-27T01:00:16.615Z,100590.25
2023-02-27T01:02:43.528Z,100601.00
2023-02-27T01:05:10.630Z,100595.97
2023-02-27T01:07:37.937Z,100600.22
2023-02-27T01:10:06.085Z,100598.19
2023-02-27T01:12:33.013Z,100598.06
2023-02-27T01:14:59.928Z,100614.41
2023-02-27T01:17:26.888Z,100607.75
2023-02-27T01:19:53.876Z,100615.38
2023-02-27T01:22:20.738Z,100615.31
2023-02-27T01:24:47.594Z,100628.06
2023-02-27T01:27:14.474Z,100632.06
2023-02-27T01:29:41.619Z,100627.19
2023-02-27T01:32:08.655Z,100629.97
2023-02-27T01:34:35.642Z,100636.00
2023-02-27T01:37:03.657Z,100638.91
2023-02-27T01:39:32.423Z,100635.91
2023-02-27T01:42:00.194Z,100640.22
2023-02-27T01:44:29.343Z,100638.13
2023-02-27T01:46:56.888Z,100639.66
2023-02-27T01:49:34.903Z,100635.16
2023-02-27T01:52:07.606Z,100640.72
2023-02-27T01:54:42.037Z,100641.56
2023-02-27T01:57:09.916Z,100650.31
2023-02-27T01:59:41.648Z,100651.84
2023-02-27T02:02:17.202Z,100653.16
2023-02-27T02:04:44.444Z,100659.03
2023-02-27T02:07:15.020Z,100652.91
2023-02-27T02:09:49.211Z,100656.34
2023-02-27T02:12:18.359Z,100652.97
2023-02-27T02:14:45.261Z,100661.28
2023-02-27T02:17:12.053Z,100664.81
2023-02-27T02:20:16.381Z,100666.22
2023-02-27T02:22:52.505Z,100662.88
2023-02-27T02:25:36.561Z,100667.03
2023-02-27T02:28:06.353Z,100667.72
2023-02-27T02:30:33.086Z,100668.53
2023-02-27T02:33:33.962Z,100668.41
2023-02-27T02:36:45.064Z,100671.06
2023-02-27T02:39:50.237Z,100678.63
2023-02-27T02:42:38.333Z,100674.41
2023-02-27T02:45:08.902Z,100671.47
2023-02-27T02:48:04.541Z,100672.09
2023-02-27T02:50:54.345Z,100669.03
2023-02-27T02:53:37.326Z,100679.09
2023-02-27T02:56:14.125Z,100681.13
2023-02-27T02:59:04.629Z,100678.97
2023-02-27T03:01:44.011Z,100686.88
2023-02-27T03:04:18.714Z,100688.06
2023-02-27T03:06:58.821Z,100688.69
2023-02-27T03:09:36.078Z,100689.34
2023-02-27T03:12:06.325Z,100689.53
2023-02-27T03:14:40.633Z,100692.47
2023-02-27T03:17:15.722Z,100688.31
2023-02-27T03:19:50.162Z,100694.00
2023-02-27T03:22:26.775Z,100691.03
2023-02-27T03:24:57.620Z,100684.87
2023-02-27T03:27:29.877Z,100682.47
2023-02-27T03:30:02.652Z,100687.50
2023-02-27T03:32:53.669Z,100684.44
2023-02-27T03:35:20.761Z,100691.94
2023-02-27T03:38:08.900Z,100692.19
2023-02-27T03:40:40.887Z,100692.22
2023-02-27T03:43:25.856Z,100698.16
2023-02-27T03:46:03.501Z,100698.50
2023-02-27T03:48:31.367Z,100700.63
2023-02-27T03:51:00.654Z,100700.63
2023-02-27T03:53:35.055Z,100711.09
2023-02-27T03:56:06.139Z,100708.28
2023-02-27T03:58:33.744Z,100706.56
2023-02-27T04:01:00.582Z,100721.44
2023-02-27T04:03:28.088Z,100721.31
2023-02-27T04:05:54.996Z,100727.03
2023-02-27T04:08:27.395Z,100723.31
2023-02-27T04:11:19.469Z,100730.59
2023-02-27T04:13:55.259Z,100730.31
2023-02-27T04:16:39.891Z,100727.34
2023-02-27T04:19:28.975Z,100726.31
2023-02-27T04:22:29.093Z,100727.06
2023-02-27T04:25:03.763Z,100735.37
2023-02-27T04:27:30.628Z,100726.22
2023-02-27T04:30:10.029Z,100725.13
2023-02-27T04:32:49.709Z,100720.84
2023-02-27T04:35:38.827Z,100722.84
2023-02-27T04:38:19.335Z,100730.50
2023-02-27T04:41:14.071Z,100720.72
2023-02-27T04:43:44.478Z,100731.50
2023-02-27T04:46:15.635Z,100718.53
2023-02-27T04:48:54.380Z,100714.13
2023-02-27T04:51:26.986Z,100712.63
2023-02-27T04:54:17.699Z,100725.88
2023-02-27T04:56:56.253Z,100726.22
2023-02-27T04:59:30.225Z,100727.12
2023-02-27T05:02:12.274Z,100737.19
2023-02-27T05:04:42.397Z,100740.28
2023-02-27T05:07:13.764Z,100743.53
2023-02-27T05:09:53.758Z,100753.94
2023-02-27T05:12:40.863Z,100760.34
2023-02-27T05:15:22.238Z,100766.78
2023-02-27T05:18:12.054Z,100777.72
2023-02-27T05:20:56.089Z,100787.50
2023-02-27T05:23:43.802Z,100783.09
2023-02-27T05:26:19.934Z,100796.28
2023-02-27T05:29:10.471Z,100794.00
2023-02-27T05:31:55.796Z,100798.91
2023-02-27T05:34:59.716Z,100810.16
2023-02-27T05:37:37.281Z,100816.34
2023-02-27T05:40:08.930Z,100828.00
2023-02-27T05:42:42.029Z,100823.59
2023-02-27T05:45:14.356Z,100841.22
2023-02-27T05:47:46.401Z,100842.31
2023-02-27T05:50:17.918Z,100849.91
2023-02-27T05:52:46.682Z,100858.66
2023-02-27T05:55:21.683Z,100864.19
2023-02-27T05:57:57.394Z,100851.59
2023-02-27T06:00:33.278Z,100863.00
2023-02-27T06:03:00.207Z,100858.97
2023-02-27T06:05:28.216Z,100875.31
2023-02-27T06:07:57.537Z,100872.41
2023-02-27T06:10:24.877Z,100880.53
2023-02-27T06:12:51.785Z,100879.66
2023-02-27T06:15:19.756Z,100892.81
2023-02-27T06:17:46.754Z,100894.34
2023-02-27T06:20:14.179Z,100889.59
2023-02-27T06:22:41.247Z,100894.97
2023-02-27T06:25:08.455Z,100899.22
2023-02-27T06:27:35.434Z,100898.34
2023-02-27T06:30:02.394Z,100894.63
2023-02-27T06:32:29.269Z,100912.03
2023-02-27T06:34:56.179Z,100901.72
2023-02-27T06:37:23.627Z,100909.22
2023-02-27T06:39:50.654Z,100908.53
2023-02-27T06:42:17.999Z,100910.88
2023-02-27T06:44:45.007Z,100911.37
2023-02-27T06:47:11.968Z,100917.09
2023-02-27T06:49:38.952Z,100916.00
2023-02-27T06:52:06.419Z,100922.50
2023-02-27T06:54:34.228Z,100931.38
2023-02-27T06:57:01.594Z,100924.69
2023-02-27T06:59:28.564Z,100923.94
2023-02-27T07:01:55.536Z,100922.31
2023-02-27T07:04:22.502Z,100913.66
2023-02-27T07:07:33.799Z,100907.72
2023-02-27T07:09:36.500Z,100911.75
2023-02-27T07:12:07.082Z,100910.28
2023-02-27T07:14:34.395Z,100913.09
2023-02-27T07:17:04.663Z,100907.59
2023-02-27T07:19:33.841Z,100912.06
2023-02-27T07:22:00.706Z,100911.06
2023-02-27T07:24:27.621Z,100912.47
2023-02-27T07:26:54.624Z,100905.00
2023-02-27T07:29:21.653Z,100906.50
2023-02-27T07:31:48.586Z,100912.91
2023-02-27T07:34:15.973Z,100910.97
2023-02-27T07:36:43.626Z,100915.44
2023-02-27T07:39:12.674Z,100912.66
2023-02-27T07:41:39.670Z,100911.34
2023-02-27T07:44:10.518Z,100921.78
2023-02-27T07:46:37.457Z,100926.69
2023-02-27T07:49:04.331Z,100927.19
2023-02-27T07:51:31.601Z,100919.03
2023-02-27T07:53:59.070Z,100927.84
2023-02-27T07:56:29.123Z,100930.47
2023-02-27T07:58:56.901Z,100932.53
2023-02-27T08:01:26.318Z,100941.53
2023-02-27T08:03:53.259Z,100941.09
2023-02-27T08:06:20.278Z,100939.22
2023-02-27T08:08:47.375Z,100943.16
2023-02-27T08:11:15.782Z,100934.59
2023-02-27T08:13:59.600Z,100935.13
2023-02-27T08:16:27.768Z,100947.53
2023-02-27T08:18:55.289Z,100941.28
2023-02-27T08:21:22.293Z,100947.31
2023-02-27T08:23:49.561Z,100949.25
2023-02-27T08:26:16.778Z,100951.63
2023-02-27T08:28:43.776Z,100949.41
2023-02-27T08:31:10.911Z,100951.41
2023-02-27T08:33:37.932Z,100957.16
2023-02-27T08:36:05.931Z,100950.38
2023-02-27T08:38:33.075Z,100954.41
2023-02-27T08:41:00.117Z,100954.47
2023-02-27T08:43:27.076Z,100958.91
2023-02-27T08:45:54.272Z,100959.13
2023-02-27T08:48:21.419Z,100962.84
2023-02-27T08:50:50.585Z,100958.09
2023-02-27T08:53:17.624Z,100967.34
2023-02-27T08:55:47.032Z,100963.63
2023-02-27T08:58:14.096Z,100962.31
2023-02-27T09:00:43.131Z,100968.69
2023-02-27T09:03:10.059Z,100962.59
2023-02-27T09:05:37.833Z,100966.38
2023-02-27T09:08:05.484Z,100967.00
2023-02-27T09:10:33.296Z,100975.69
2023-02-27T09:13:00.804Z,100962.87
2023-02-27T09:15:27.793Z,100982.06
2023-02-27T09:17:56.751Z,100975.63
2023-02-27T09:20:23.820Z,100982.78
2023-02-27T09:22:50.924Z,100995.66
2023-02-27T09:25:18.001Z,100983.81
2023-02-27T09:27:45.015Z,100986.94
2023-02-27T09:30:13.236Z,100989.78
2023-02-27T09:32:40.248Z,100985.91
2023-02-27T09:35:07.850Z,100986.78
2023-02-27T09:37:35.180Z,100990.19
2023-02-27T09:40:04.410Z,100981.81
2023-02-27T09:42:42.330Z,100985.50
2023-02-27T09:45:18.397Z,100980.38
2023-02-27T09:47:50.922Z,100985.72
2023-02-27T09:50:40.922Z,100997.03
2023-02-27T09:53:14.695Z,101002.91
2023-02-27T09:55:43.842Z,101010.97
2023-02-27T09:58:51.379Z,101002.69
2023-02-27T10:01:31.774Z,100999.63
2023-02-27T10:04:18.819Z,101004.16
2023-02-27T10:07:08.043Z,101011.22
2023-02-27T10:10:08.398Z,101006.22
2023-02-27T10:12:47.391Z,101003.72
2023-02-27T10:15:41.199Z,101010.88
2023-02-27T10:18:26.119Z,101009.94
2023-02-27T10:20:59.742Z,101011.38
2023-02-27T10:23:43.735Z,101007.59
2023-02-27T10:26:33.469Z,101012.78
2023-02-27T10:29:16.411Z,101002.87
2023-02-27T10:31:46.656Z,101007.28
2023-02-27T10:34:18.653Z,101012.81
2023-02-27T10:36:47.103Z,101007.88
2023-02-27T10:39:20.609Z,101017.75
2023-02-27T10:41:51.481Z,101007.91
2023-02-27T10:44:21.892Z,101011.69
2023-02-27T10:46:51.446Z,101001.31
2023-02-27T10:49:24.903Z,101003.50
2023-02-27T10:52:18.430Z,101005.56
2023-02-27T10:54:49.141Z,100991.66
2023-02-27T10:57:26.924Z,100994.25
2023-02-27T11:00:01.893Z,101002.16
2023-02-27T11:02:42.626Z,100999.69
2023-02-27T11:05:40.084Z,101005.44
2023-02-27T11:08:24.865Z,100999.34
2023-02-27T11:11:05.923Z,100987.28
2023-02-27T11:13:38.768Z,100988.59
2023-02-27T11:16:18.287Z,100976.13
2023-02-27T11:18:48.097Z,100972.94
2023-02-27T11:21:27.633Z,100983.19
2023-02-27T11:24:01.353Z,100979.19
2023-02-27T11:26:33.725Z,100981.47
2023-02-27T11:29:07.341Z,100974.00
2023-02-27T11:31:39.511Z,100989.56
2023-02-27T11:34:08.560Z,100981.94
2023-02-27T11:36:42.109Z,100974.16
2023-02-27T11:39:25.964Z,100980.44
2023-02-27T11:41:55.127Z,100979.84
2023-02-27T11:44:27.426Z,100982.72
2023-02-27T11:47:20.608Z,100975.97
2023-02-27T11:50:26.085Z,100989.41
2023-02-27T11:53:13.305Z,100979.16
2023-02-27T11:55:42.750Z,100985.09
2023-02-27T11:58:17.547Z,100995.69
2023-02-27T12:00:51.250Z,100988.34
2023-02-27T12:03:23.189Z,100982.03
2023-02-27T12:06:00.280Z,100979.75
2023-02-27T12:08:32.808Z,100972.13
2023-02-27T12:11:15.135Z,100969.69
2023-02-27T12:13:48.028Z,100966.41
2023-02-27T12:16:21.936Z,100968.69
2023-02-27T12:18:53.131Z,100979.78
2023-02-27T12:21:24.629Z,100973.84
2023-02-27T12:23:56.043Z,100981.69
2023-02-27T12:26:42.660Z,100980.00
2023-02-27T12:29:46.949Z,100988.41
2023-02-27T12:32:38.249Z,100990.31
2023-02-27T12:35:19.726Z,100998.72
2023-02-27T12:37:46.925Z,100997.28
2023-02-27T12:40:18.951Z,101006.97
2023-02-27T12:43:21.353Z,100995.03
2023-02-27T12:46:21.453Z,100998.88
2023-02-27T12:48:57.068Z,101000.31
2023-02-27T12:51:33.594Z,101003.50
2023-02-27T12:54:19.486Z,101001.91
2023-02-27T12:57:07.338Z,101004.50
2023-02-27T12:59:56.413Z,100998.91
2023-02-27T13:02:34.892Z,100996.63
2023-02-27T13:05:13.536Z,100999.09
2023-02-27T13:08:07.532Z,100994.50
2023-02-27T13:10:37.517Z,100993.03
2023-02-27T13:13:23.091Z,100988.53
2023-02-27T13:16:19.806Z,100996.81
2023-02-27T13:18:52.687Z,101002.44
2023-02-27T13:21:29.211Z,100989.63
2023-02-27T13:24:24.933Z,100997.88
2023-02-27T13:27:00.894Z,101005.41
2023-02-27T13:29:41.197Z,101007.50
2023-02-27T13:32:41.321Z,101006.34
2023-02-27T13:35:41.069Z,101015.00
2023-02-27T13:38:34.685Z,101003.91
2023-02-27T13:41:27.352Z,100998.50
2023-02-27T13:43:56.230Z,101003.50
2023-02-27T13:46:26.943Z,100999.75
2023-02-27T13:49:06.094Z,101003.13
2023-02-27T13:51:35.875Z,100997.56
2023-02-27T13:54:17.656Z,101008.44
2023-02-27T13:57:05.565Z,100994.03
2023-02-27T13:59:39.962Z,101001.59
2023-02-27T14:02:13.105Z,100999.81
2023-02-27T14:04:45.986Z,100984.72
2023-02-27T14:07:20.975Z,100980.78
2023-02-27T14:09:51.282Z,100997.53
2023-02-27T14:12:46.333Z,100997.69
2023-02-27T14:15:22.568Z,100980.25
2023-02-27T14:18:05.762Z,100984.28
2023-02-27T14:20:41.380Z,100986.03
2023-02-27T14:23:17.646Z,100992.03
2023-02-27T14:25:53.596Z,100993.66
2023-02-27T14:28:34.754Z,100991.28
2023-02-27T14:31:09.019Z,100998.81
2023-02-27T14:33:46.605Z,100993.19
2023-02-27T14:36:21.760Z,100997.16
2023-02-27T14:38:50.799Z,101003.75
2023-02-27T14:41:27.521Z,101007.53
2023-02-27T14:43:57.795Z,101011.88
2023-02-27T14:46:32.835Z,101010.19
2023-02-27T14:49:06.320Z,101010.13
2023-02-27T14:51:36.240Z,101009.53
2023-02-27T14:54:09.377Z,101016.44
2023-02-27T14:56:36.510Z,101015.16
2023-02-27T14:59:14.903Z,101014.88
2023-02-27T15:01:42.170Z,101010.22
2023-02-27T15:04:20.520Z,101023.41
2023-02-27T15:06:50.892Z,101026.66
2023-02-27T15:09:34.573Z,101038.69
2023-02-27T15:12:04.484Z,101039.88
2023-02-27T15:14:38.629Z,101044.44
2023-02-27T15:17:20.116Z,101046.06
2023-02-27T15:19:58.716Z,101042.78
2023-02-27T15:22:39.148Z,101046.59
2023-02-27T15:25:08.401Z,101042.88
2023-02-27T15:27:37.760Z,101044.59
2023-02-27T15:30:05.520Z,101042.97
2023-02-27T15:32:43.316Z,101051.63
2023-02-27T15:35:19.645Z,101059.09
2023-02-27T15:37:54.226Z,101070.47
2023-02-27T15:40:30.227Z,101069.47
2023-02-27T15:42:58.550Z,101065.13
2023-02-27T15:45:36.269Z,101075.62
2023-02-27T15:48:04.817Z,101082.16
2023-02-27T15:50:36.416Z,101083.84
2023-02-27T15:53:19.309Z,101082.31
2023-02-27T15:56:09.768Z,101088.34
2023-02-27T15:58:45.562Z,101086.47
2023-02-27T16:01:24.874Z,101088.47
2023-02-27T16:03:54.610Z,101094.72
2023-02-27T16:06:29.041Z,101101.31
2023-02-27T16:09:05.215Z,101095.97
2023-02-27T16:11:34.999Z,101097.94
2023-02-27T16:14:02.599Z,101097.00
2023-02-27T16:16:56.508Z,101101.94
2023-02-27T16:19:31.813Z,101099.97
2023-02-27T16:22:19.759Z,101100.84
2023-02-27T16:24:47.696Z,101105.38
2023-02-27T16:27:29.729Z,101119.66
2023-02-27T16:30:03.049Z,101116.97
2023-02-27T16:32:39.855Z,101122.94
2023-02-27T16:35:15.787Z,101128.94
2023-02-27T16:37:45.207Z,101132.22
2023-02-27T16:40:17.815Z,101133.47
2023-02-27T16:42:49.014Z,101142.22
2023-02-27T16:45:19.332Z,101152.97
2023-02-27T16:47:49.832Z,101154.12
2023-02-27T16:50:24.546Z,101160.66
2023-02-27T16:52:53.568Z,101150.91
2023-02-27T16:55:20.861Z,101153.78
2023-02-27T16:57:47.834Z,101155.00
2023-02-27T17:00:16.608Z,101165.84
2023-02-27T17:02:43.550Z,101165.09
2023-02-27T17:05:13.339Z,101169.53
2023-02-27T17:07:40.068Z,101171.50
2023-02-27T17:10:07.172Z,101166.81
2023-02-27T17:12:34.593Z,101160.78
2023-02-27T17:15:01.716Z,101164.62
2023-02-27T17:17:29.162Z,101166.78
2023-02-27T17:19:57.409Z,101165.25
2023-02-27T17:22:24.407Z,101171.44
2023-02-27T17:24:53.473Z,101178.81
2023-02-27T17:27:20.447Z,101178.47
2023-02-27T17:29:47.390Z,101195.06
2023-02-27T17:32:14.563Z,101174.19
2023-02-27T17:34:41.615Z,101190.44
2023-02-27T17:37:08.674Z,101189.13
2023-02-27T17:39:35.855Z,101190.88
2023-02-27T17:42:03.044Z,101186.22
2023-02-27T17:44:30.183Z,101196.81
2023-02-27T17:46:57.179Z,101202.06
2023-02-27T17:49:24.080Z,101206.53
2023-02-27T17:51:51.037Z,101203.81
2023-02-27T17:54:17.962Z,101211.66
2023-02-27T17:56:44.978Z,101205.75
2023-02-27T17:59:12.013Z,101217.38
2023-02-27T18:01:39.428Z,101219.13
2023-02-27T18:04:11.218Z,101229.56
2023-02-27T18:06:38.906Z,101225.53
2023-02-27T18:09:06.172Z,101230.59
2023-02-27T18:11:33.236Z,101237.63
2023-02-27T18:14:00.613Z,101230.06
2023-02-27T18:16:27.920Z,101221.59
2023-02-27T18:18:55.217Z,101231.22
2023-02-27T18:21:24.460Z,101239.03
2023-02-27T18:23:52.485Z,101234.84
2023-02-27T18:26:32.798Z,101236.22
2023-02-27T18:29:05.847Z,101239.59
2023-02-27T18:31:36.606Z,101246.75
2023-02-27T18:34:03.865Z,101238.00
2023-02-27T18:36:31.581Z,101241.69
2023-02-27T18:38:59.078Z,101242.44
2023-02-27T18:41:26.196Z,101246.56
2023-02-27T18:43:53.425Z,101255.34
2023-02-27T18:46:20.634Z,101258.97
2023-02-27T18:48:47.652Z,101252.78
2023-02-27T18:51:16.414Z,101256.38
2023-02-27T18:53:46.238Z,101259.38
2023-02-27T18:56:14.170Z,101255.72
2023-02-27T18:58:41.379Z,101272.13
2023-02-27T19:01:08.591Z,101273.84
2023-02-27T19:03:36.274Z,101264.59
2023-02-27T19:06:03.671Z,101271.16
2023-02-27T19:08:30.666Z,101277.41
2023-02-27T19:10:58.522Z,101277.28
2023-02-27T19:13:26.766Z,101280.13
2023-02-27T19:15:54.203Z,101285.63
2023-02-27T19:18:21.434Z,101286.66
2023-02-27T19:20:48.499Z,101287.44
2023-02-27T19:23:15.462Z,101293.84
2023-02-27T19:25:42.974Z,101286.09
2023-02-27T19:28:11.753Z,101290.25
2023-02-27T19:30:39.459Z,101288.75
2023-02-27T19:33:06.620Z,101298.22
2023-02-27T19:35:33.655Z,101296.38
2023-02-27T19:38:00.571Z,101302.75
2023-02-27T19:40:28.357Z,101303.97
2023-02-27T19:42:55.738Z,101311.47
2023-02-27T19:45:23.506Z,101308.37
2023-02-27T19:47:50.473Z,101309.41
2023-02-27T19:50:17.866Z,101320.91
2023-02-27T19:52:44.780Z,101322.97
2023-02-27T19:55:11.857Z,101316.72
2023-02-27T19:57:38.958Z,101315.25
2023-02-27T20:00:07.743Z,101320.47
2023-02-27T20:02:34.660Z,101320.28
2023-02-27T20:05:03.305Z,101330.38
2023-02-27T20:07:32.195Z,101324.38
2023-02-27T20:09:59.136Z,101330.66
2023-02-27T20:12:26.237Z,101326.66
2023-02-27T20:14:53.200Z,101327.94
2023-02-27T20:17:20.058Z,101330.56
2023-02-27T20:19:47.248Z,101334.97
2023-02-27T20:22:15.820Z,101332.34
2023-02-27T20:24:44.885Z,101341.81
2023-02-27T20:27:12.307Z,101343.22
2023-02-27T20:29:40.606Z,101347.66
2023-02-27T20:32:08.680Z,101352.09
2023-02-27T20:34:35.646Z,101347.31
2023-02-27T20:37:03.362Z,101350.72
2023-02-27T20:39:30.276Z,101356.28
2023-02-27T20:41:57.235Z,101354.50
2023-02-27T20:44:24.166Z,101357.50
2023-02-27T20:46:51.172Z,101361.44
2023-02-27T20:49:18.515Z,101354.91
2023-02-27T20:51:45.510Z,101359.59
2023-02-27T20:54:20.179Z,101354.78
2023-02-27T20:56:51.978Z,101361.38
2023-02-27T20:59:20.845Z,101364.84
2023-02-27T21:01:51.736Z,101356.41
2023-02-27T21:04:42.773Z,101364.94
2023-02-27T21:07:11.783Z,101360.62
2023-02-27T21:09:39.217Z,101361.16
2023-02-27T21:12:06.870Z,101358.34
2023-02-27T21:14:34.409Z,101370.06
2023-02-27T21:17:01.511Z,101365.13
2023-02-27T21:19:28.619Z,101359.34
2023-02-27T21:21:56.141Z,101363.91
2023-02-27T21:24:23.364Z,101354.78
2023-02-27T21:26:50.427Z,101369.66
2023-02-27T21:29:20.171Z,101367.91
2023-02-27T21:31:49.157Z,101364.97
2023-02-27T21:34:22.154Z,101364.25
2023-02-27T21:36:50.105Z,101351.09
2023-02-27T21:39:26.176Z,101352.91
2023-02-27T21:41:53.480Z,101353.03
2023-02-27T21:44:22.004Z,101357.25
2023-02-27T21:46:48.925Z,101362.47
2023-02-27T21:49:21.197Z,101363.22
2023-02-27T21:51:48.442Z,101365.22
2023-02-27T21:54:16.906Z,101369.66
2023-02-27T21:56:44.971Z,101368.84
2023-02-27T21:59:12.311Z,101364.38
2023-02-27T22:01:39.726Z,101379.69
2023-02-27T22:04:07.578Z,101369.59
2023-02-27T22:06:35.311Z,101375.75
2023-02-27T22:09:05.165Z,101380.88
2023-02-27T22:11:32.335Z,101378.84
2023-02-27T22:13:59.219Z,101379.69
2023-02-27T22:16:26.173Z,101397.69
2023-02-27T22:18:53.214Z,101391.47
2023-02-27T22:21:22.828Z,101391.41
2023-02-27T22:23:50.619Z,101385.66
2023-02-27T22:26:24.353Z,101391.53
2023-02-27T22:28:55.558Z,101391.75
2023-02-27T22:31:25.304Z,101393.69
2023-02-27T22:33:53.161Z,101391.56
2023-02-27T22:36:29.391Z,101399.34
2023-02-27T22:38:56.772Z,101393.81
2023-02-27T22:41:35.818Z,101393.72
2023-02-27T22:44:03.858Z,101394.53
2023-02-27T22:46:45.264Z,101396.63
2023-02-27T22:49:15.264Z,101399.87
2023-02-27T22:51:42.700Z,101403.66
2023-02-27T22:54:11.749Z,101398.53
2023-02-27T22:56:38.776Z,101406.53
2023-02-27T22:59:07.350Z,101404.38
2023-02-27T23:01:36.660Z,101403.53
2023-02-27T23:04:08.684Z,101409.53
2023-02-27T23:06:39.013Z,101406.50
2023-02-27T23:09:08.796Z,101400.88
2023-02-27T23:11:35.598Z,101410.28
2023-02-27T23:14:02.673Z,101409.13
2023-02-27T23:16:29.705Z,101411.44
2023-02-27T23:18:59.282Z,101409.84
2023-02-27T23:21:35.116Z,101411.41
2023-02-27T23:24:09.932Z,101408.16
2023-02-27T23:26:41.853Z,101408.47
2023-02-27T23:29:10.030Z,101413.59
2023-02-27T23:31:38.162Z,101412.50
2023-02-27T23:34:06.360Z,101426.22
2023-02-27T23:36:35.358Z,101419.03
2023-02-27T23:39:03.431Z,101427.00
2023-02-27T23:41:31.290Z,101420.37
2023-02-27T23:44:17.003Z,101419.53
2023-02-27T23:46:43.864Z,101422.94
2023-02-27T23:49:11.784Z,101427.59
2023-02-27T23:51:38.756Z,101427.06
2023-02-27T23:54:05.964Z,101434.41
2023-02-27T23:56:33.193Z,101434.78
2023-02-27T23:59:02.681Z,101435.94
